createdAt,value
2022-10-01T00:01:17.655Z,100042.47
2022-10-01T00:03:45.315Z,100045.16
2022-10-01T00:06:17.586Z,100047.47
2022-10-01T00:08:49.317Z,100055.19
2022-10-01T00:11:22.267Z,100057.03
2022-10-01T00:13:49.917Z,100058.53
2022-10-01T00:16:21.703Z,100058.84
2022-10-01T00:18:48.805Z,100049.50
2022-10-01T00:21:20.292Z,100052.00
2022-10-01T00:23:47.984Z,100049.00
2022-10-01T00:26:23.320Z,100039.75
2022-10-01T00:28:55.738Z,100040.28
2022-10-01T00:31:23.049Z,100037.72
2022-10-01T00:33:53.688Z,100038.44
2022-10-01T00:36:21.133Z,100032.88
2022-10-01T00:38:48.429Z,100031.38
2022-10-01T00:41:17.882Z,100034.56
2022-10-01T00:43:48.035Z,100033.84
2022-10-01T00:46:45.381Z,100043.59
2022-10-01T00:49:26.796Z,100036.72
2022-10-01T00:52:01.743Z,100033.38
2022-10-01T00:54:31.467Z,100046.75
2022-10-01T00:57:01.265Z,100042.56
2022-10-01T00:59:29.476Z,100033.16
2022-10-01T01:01:56.625Z,100024.13
2022-10-01T01:04:23.688Z,100034.69
2022-10-01T01:06:57.876Z,100042.69
2022-10-01T01:09:30.597Z,100044.38
2022-10-01T01:12:18.671Z,100052.56
2022-10-01T01:14:58.031Z,100053.09
2022-10-01T01:17:34.017Z,100049.91
2022-10-01T01:20:07.740Z,100055.59
2022-10-01T01:22:41.545Z,100050.06
2022-10-01T01:25:22.084Z,100051.09
2022-10-01T01:28:17.396Z,100045.88
2022-10-01T01:30:45.043Z,100033.78
2022-10-01T01:33:17.710Z,100038.69
2022-10-01T01:35:53.155Z,100041.19
2022-10-01T01:38:28.135Z,100041.00
2022-10-01T01:40:58.959Z,99994.06
2022-10-01T01:43:31.487Z,100032.13
2022-10-01T01:46:00.940Z,100027.84
2022-10-01T01:48:30.981Z,100027.56
2022-10-01T01:51:04.583Z,100021.81
2022-10-01T01:53:32.240Z,100026.34
2022-10-01T01:56:00.457Z,100030.03
2022-10-01T01:58:28.278Z,100023.25
2022-10-01T02:00:55.407Z,100035.13
2022-10-01T02:03:29.204Z,100030.63
2022-10-01T02:06:14.202Z,100036.09
2022-10-01T02:08:51.395Z,100038.13
2022-10-01T02:11:40.721Z,100045.34
2022-10-01T02:14:12.675Z,100051.84
2022-10-01T02:17:01.548Z,100057.78
2022-10-01T02:19:57.253Z,100051.28
2022-10-01T02:22:48.371Z,100054.72
2022-10-01T02:25:17.563Z,100051.63
2022-10-01T02:28:00.578Z,100048.16
2022-10-01T02:30:35.622Z,100058.69
2022-10-01T02:33:05.069Z,100065.09
2022-10-01T02:35:35.270Z,100060.38
2022-10-01T02:38:05.730Z,100058.44
2022-10-01T02:40:36.526Z,100051.63
2022-10-01T02:43:37.328Z,100045.66
2022-10-01T02:46:28.482Z,100051.06
2022-10-01T02:48:57.139Z,100048.38
2022-10-01T02:51:36.399Z,100054.97
2022-10-01T02:54:29.725Z,100060.91
2022-10-01T02:57:16.739Z,100068.31
2022-10-01T02:59:43.590Z,100061.22
2022-10-01T03:02:11.336Z,100065.25
2022-10-01T03:04:38.604Z,100075.31
2022-10-01T03:07:05.706Z,100071.88
2022-10-01T03:09:34.599Z,100070.59
2022-10-01T03:12:01.980Z,100072.44
2022-10-01T03:14:29.303Z,100082.97
2022-10-01T03:16:56.157Z,100083.69
2022-10-01T03:19:22.970Z,100084.81
2022-10-01T03:21:49.759Z,100086.13
2022-10-01T03:24:16.579Z,100093.78
2022-10-01T03:26:43.386Z,100093.09
2022-10-01T03:29:10.192Z,100098.66
2022-10-01T03:31:38.356Z,100102.16
2022-10-01T03:34:05.552Z,100101.13
2022-10-01T03:36:32.458Z,100099.66
2022-10-01T03:38:59.277Z,100099.19
2022-10-01T03:41:26.367Z,100098.75
2022-10-01T03:43:57.103Z,100077.56
2022-10-01T03:46:26.547Z,100094.16
2022-10-01T03:48:53.349Z,100088.78
2022-10-01T03:51:20.866Z,100096.44
2022-10-01T03:53:48.150Z,100080.56
2022-10-01T03:56:15.698Z,100087.69
2022-10-01T03:58:42.893Z,100093.16
2022-10-01T04:01:09.676Z,100108.00
2022-10-01T04:03:36.819Z,100091.47
2022-10-01T04:06:03.799Z,100096.81
2022-10-01T04:08:30.592Z,100101.50
2022-10-01T04:10:57.371Z,100122.53
2022-10-01T04:13:24.226Z,100115.16
2022-10-01T04:15:51.006Z,100110.78
2022-10-01T04:18:19.370Z,100108.38
2022-10-01T04:20:46.139Z,100112.53
2022-10-01T04:23:13.129Z,100114.78
2022-10-01T04:25:40.048Z,100124.03
2022-10-01T04:28:10.437Z,100126.59
2022-10-01T04:30:40.151Z,100133.09
2022-10-01T04:33:09.648Z,100129.50
2022-10-01T04:35:36.662Z,100125.06
2022-10-01T04:38:12.488Z,100127.63
2022-10-01T04:40:39.407Z,100130.84
2022-10-01T04:43:10.377Z,100131.78
2022-10-01T04:45:38.208Z,100133.72
2022-10-01T04:48:05.605Z,100134.91
2022-10-01T04:50:33.139Z,100133.44
2022-10-01T04:53:00.014Z,100134.06
2022-10-01T04:55:26.890Z,100139.50
2022-10-01T04:57:53.825Z,100141.13
2022-10-01T05:00:26.649Z,100155.84
2022-10-01T05:02:53.955Z,100149.81
2022-10-01T05:05:23.786Z,100156.31
2022-10-01T05:07:50.835Z,100155.28
2022-10-01T05:10:20.303Z,100156.22
2022-10-01T05:12:48.129Z,100155.31
2022-10-01T05:15:16.820Z,100152.97
2022-10-01T05:17:43.856Z,100159.88
2022-10-01T05:20:20.029Z,100155.81
2022-10-01T05:22:49.002Z,100151.41
2022-10-01T05:25:17.436Z,100161.03
2022-10-01T05:27:44.753Z,100173.03
2022-10-01T05:30:14.239Z,100164.13
2022-10-01T05:32:41.935Z,100155.22
2022-10-01T05:35:08.904Z,100156.94
2022-10-01T05:37:36.099Z,100163.34
2022-10-01T05:40:04.000Z,100157.72
2022-10-01T05:42:30.795Z,100152.00
2022-10-01T05:44:57.704Z,100151.31
2022-10-01T05:47:24.541Z,100162.09
2022-10-01T05:49:51.318Z,100165.75
2022-10-01T05:52:18.114Z,100167.66
2022-10-01T05:54:45.044Z,100168.50
2022-10-01T05:57:11.997Z,100161.44
2022-10-01T05:59:38.773Z,100157.41
2022-10-01T06:02:05.737Z,100153.19
2022-10-01T06:04:33.468Z,100159.59
2022-10-01T06:07:02.520Z,100158.06
2022-10-01T06:09:29.404Z,100155.34
2022-10-01T06:11:56.244Z,100151.22
2022-10-01T06:14:23.197Z,100158.19
2022-10-01T06:16:53.917Z,100153.91
2022-10-01T06:19:20.839Z,100148.41
2022-10-01T06:21:47.641Z,100145.09
2022-10-01T06:24:14.588Z,100138.00
2022-10-01T06:26:41.636Z,100145.25
2022-10-01T06:29:08.459Z,100146.41
2022-10-01T06:31:35.423Z,100154.84
2022-10-01T06:34:02.464Z,100145.81
2022-10-01T06:36:29.704Z,100149.16
2022-10-01T06:38:56.645Z,100125.16
2022-10-01T06:41:23.769Z,100137.88
2022-10-01T06:43:50.543Z,100137.53
2022-10-01T06:46:17.536Z,100142.47
2022-10-01T06:48:44.310Z,100139.13
2022-10-01T06:51:11.218Z,100141.28
2022-10-01T06:53:38.099Z,100135.34
2022-10-01T06:56:08.336Z,100132.03
2022-10-01T06:58:35.215Z,100127.34
2022-10-01T07:01:03.856Z,100136.44
2022-10-01T07:03:31.703Z,100148.00
2022-10-01T07:06:03.942Z,100137.94
2022-10-01T07:08:30.782Z,100144.94
2022-10-01T07:11:02.887Z,100146.53
2022-10-01T07:13:29.944Z,100152.34
2022-10-01T07:15:57.157Z,100148.31
2022-10-01T07:18:24.217Z,100143.28
2022-10-01T07:20:51.040Z,100146.81
2022-10-01T07:23:18.333Z,100154.66
2022-10-01T07:25:45.651Z,100151.44
2022-10-01T07:28:18.649Z,100143.88
2022-10-01T07:30:59.732Z,100135.97
2022-10-01T07:33:27.149Z,100130.44
2022-10-01T07:35:54.238Z,100121.66
2022-10-01T07:38:21.170Z,100118.72
2022-10-01T07:40:52.458Z,100121.88
2022-10-01T07:43:19.287Z,100132.94
2022-10-01T07:46:05.398Z,100118.88
2022-10-01T07:48:32.480Z,100103.84
2022-10-01T07:50:59.260Z,100107.78
2022-10-01T07:53:26.144Z,100104.47
2022-10-01T07:55:53.061Z,100110.50
2022-10-01T07:58:24.008Z,100113.22
2022-10-01T08:00:56.099Z,100116.31
2022-10-01T08:03:23.091Z,100118.13
2022-10-01T08:05:50.394Z,100117.31
2022-10-01T08:08:17.200Z,100126.81
2022-10-01T08:10:44.189Z,100119.78
2022-10-01T08:13:16.139Z,100121.22
2022-10-01T08:15:50.679Z,100127.16
2022-10-01T08:18:17.621Z,100127.41
2022-10-01T08:20:44.555Z,100122.22
2022-10-01T08:23:14.859Z,100125.53
2022-10-01T08:25:43.206Z,100126.44
2022-10-01T08:28:11.406Z,100123.72
2022-10-01T08:30:39.896Z,100132.75
2022-10-01T08:33:07.438Z,100123.94
2022-10-01T08:35:34.423Z,100126.81
2022-10-01T08:38:05.802Z,100117.91
2022-10-01T08:40:43.669Z,100098.97
2022-10-01T08:43:30.709Z,100106.13
2022-10-01T08:46:14.803Z,100102.31
2022-10-01T08:49:02.937Z,100105.81
2022-10-01T08:51:46.336Z,100110.59
2022-10-01T08:54:22.163Z,100115.16
2022-10-01T08:56:49.150Z,100118.56
2022-10-01T08:59:38.443Z,100130.13
2022-10-01T09:02:35.842Z,100123.84
2022-10-01T09:05:16.655Z,100128.63
2022-10-01T09:08:02.110Z,100127.16
2022-10-01T09:10:28.872Z,100127.16
2022-10-01T09:12:58.746Z,100114.22
2022-10-01T09:15:41.889Z,100104.91
2022-10-01T09:18:23.844Z,100101.28
2022-10-01T09:20:59.059Z,100103.56
2022-10-01T09:23:32.075Z,100098.13
2022-10-01T09:26:00.139Z,100090.28
2022-10-01T09:28:31.925Z,100084.13
2022-10-01T09:31:24.095Z,100090.50
2022-10-01T09:34:14.078Z,100084.78
2022-10-01T09:37:04.800Z,100078.56
2022-10-01T09:39:42.766Z,100080.31
2022-10-01T09:42:09.634Z,100071.38
2022-10-01T09:44:37.696Z,100077.63
2022-10-01T09:47:17.578Z,100067.13
2022-10-01T09:49:46.286Z,100068.13
2022-10-01T09:52:20.729Z,100066.22
2022-10-01T09:54:53.650Z,100052.13
2022-10-01T09:57:27.193Z,100053.22
2022-10-01T10:00:17.445Z,100044.56
2022-10-01T10:02:49.227Z,100050.63
2022-10-01T10:05:40.937Z,100049.94
2022-10-01T10:08:15.722Z,100028.19
2022-10-01T10:10:58.505Z,100032.31
2022-10-01T10:13:43.404Z,100021.13
2022-10-01T10:16:26.891Z,100018.31
2022-10-01T10:19:01.024Z,100013.84
2022-10-01T10:21:30.858Z,100005.72
2022-10-01T10:24:00.581Z,100000.94
2022-10-01T10:26:32.630Z,99994.28
2022-10-01T10:29:02.899Z,99996.63
2022-10-01T10:31:40.513Z,99996.63
2022-10-01T10:34:19.100Z,99992.69
2022-10-01T10:36:47.181Z,99982.56
2022-10-01T10:39:22.533Z,99981.22
2022-10-01T10:41:52.180Z,99997.53
2022-10-01T10:44:21.624Z,99991.97
2022-10-01T10:46:51.180Z,99995.81
2022-10-01T10:49:29.594Z,99999.16
2022-10-01T10:51:58.422Z,99991.34
2022-10-01T10:54:37.650Z,99990.16
2022-10-01T10:57:27.952Z,99987.53
2022-10-01T10:59:56.253Z,99991.00
2022-10-01T11:02:26.806Z,99980.13
2022-10-01T11:04:55.078Z,99984.78
2022-10-01T11:07:24.282Z,99985.50
2022-10-01T11:10:25.733Z,99974.41
2022-10-01T11:13:18.633Z,99970.22
2022-10-01T11:15:55.903Z,99977.81
2022-10-01T11:19:01.459Z,99975.06
2022-10-01T11:21:31.213Z,99993.84
2022-10-01T11:24:03.889Z,99981.19
2022-10-01T11:26:52.743Z,99962.09
2022-10-01T11:29:20.055Z,99963.38
2022-10-01T11:32:02.345Z,99959.53
2022-10-01T11:34:49.542Z,99959.88
2022-10-01T11:37:34.369Z,99952.63
2022-10-01T11:40:13.647Z,99937.84
2022-10-01T11:42:42.205Z,99935.25
2022-10-01T11:45:23.353Z,99940.53
2022-10-01T11:47:55.661Z,99947.47
2022-10-01T11:50:27.171Z,99952.75
2022-10-01T11:53:02.725Z,99951.56
2022-10-01T11:55:58.427Z,99947.47
2022-10-01T11:58:53.055Z,99959.53
2022-10-01T12:01:36.027Z,99955.75
2022-10-01T12:04:11.624Z,99958.88
2022-10-01T12:06:53.858Z,99965.00
2022-10-01T12:09:32.460Z,99953.97
2022-10-01T12:12:06.018Z,99948.47
2022-10-01T12:15:06.256Z,99961.63
2022-10-01T12:17:44.370Z,99946.28
2022-10-01T12:20:25.246Z,99959.53
2022-10-01T12:22:54.701Z,99947.09
2022-10-01T12:25:29.095Z,99945.00
2022-10-01T12:28:09.480Z,99944.25
2022-10-01T12:30:46.404Z,99934.72
2022-10-01T12:33:34.041Z,99929.41
2022-10-01T12:36:22.211Z,99915.56
2022-10-01T12:39:16.107Z,99905.63
2022-10-01T12:42:12.631Z,99895.25
2022-10-01T12:44:57.757Z,99884.13
2022-10-01T12:47:43.007Z,99883.09
2022-10-01T12:50:34.620Z,99883.56
2022-10-01T12:53:07.075Z,99887.84
2022-10-01T12:55:46.425Z,99886.25
2022-10-01T12:58:30.392Z,99898.34
2022-10-01T13:01:15.392Z,99908.94
2022-10-01T13:04:08.853Z,99895.19
2022-10-01T13:06:54.197Z,99891.00
2022-10-01T13:09:23.641Z,99879.31
2022-10-01T13:12:15.498Z,99857.66
2022-10-01T13:14:44.490Z,99835.81
2022-10-01T13:17:11.320Z,99840.00
2022-10-01T13:19:55.376Z,99827.34
2022-10-01T13:22:25.085Z,99834.38
2022-10-01T13:25:33.371Z,99843.56
2022-10-01T13:28:11.067Z,99833.72
2022-10-01T13:31:01.981Z,99832.00
2022-10-01T13:33:36.187Z,99826.69
2022-10-01T13:36:06.030Z,99815.63
2022-10-01T13:38:38.703Z,99815.31
2022-10-01T13:41:42.462Z,99797.94
2022-10-01T13:44:09.212Z,99784.06
2022-10-01T13:46:51.169Z,99780.94
2022-10-01T13:49:25.413Z,99786.50
2022-10-01T13:51:53.224Z,99785.09
2022-10-01T13:54:47.821Z,99780.59
2022-10-01T13:57:38.896Z,99774.19
2022-10-01T14:00:11.976Z,99752.00
2022-10-01T14:02:41.804Z,99742.81
2022-10-01T14:05:17.719Z,99730.63
2022-10-01T14:07:47.807Z,99737.88
2022-10-01T14:10:16.549Z,99733.25
2022-10-01T14:13:05.309Z,99730.84
2022-10-01T14:15:59.173Z,99709.19
2022-10-01T14:18:39.732Z,99688.56
2022-10-01T14:21:43.731Z,99669.63
2022-10-01T14:24:51.201Z,99651.44
2022-10-01T14:27:43.322Z,99648.38
2022-10-01T14:30:39.889Z,99651.25
2022-10-01T14:33:34.821Z,99639.31
2022-10-01T14:36:22.408Z,99625.63
2022-10-01T14:38:49.304Z,99632.41
2022-10-01T14:41:23.436Z,99633.94
2022-10-01T14:43:50.280Z,99649.44
2022-10-01T14:46:18.669Z,99672.00
2022-10-01T14:48:57.481Z,99685.56
2022-10-01T14:51:27.577Z,99682.31
2022-10-01T14:53:57.401Z,99686.63
2022-10-01T14:56:25.153Z,99674.19
2022-10-01T14:59:03.353Z,99664.44
2022-10-01T15:01:30.593Z,99671.19
2022-10-01T15:03:57.547Z,99666.25
2022-10-01T15:06:28.759Z,99671.28
2022-10-01T15:09:05.791Z,99663.88
2022-10-01T15:11:34.574Z,99651.16
2022-10-01T15:14:08.372Z,99650.88
2022-10-01T15:16:36.538Z,99648.13
2022-10-01T15:19:12.074Z,99634.00
2022-10-01T15:21:54.756Z,99631.13
2022-10-01T15:24:40.201Z,99630.09
2022-10-01T15:27:09.146Z,99649.88
2022-10-01T15:29:38.692Z,99660.41
2022-10-01T15:32:06.078Z,99650.47
2022-10-01T15:34:34.209Z,99656.38
2022-10-01T15:37:01.646Z,99652.13
2022-10-01T15:39:38.613Z,99648.50
2022-10-01T15:42:21.593Z,99640.03
2022-10-01T15:44:50.043Z,99632.78
2022-10-01T15:47:19.738Z,99635.69
2022-10-01T15:50:17.552Z,99625.06
2022-10-01T15:52:50.610Z,99615.88
2022-10-01T15:55:22.852Z,99598.41
2022-10-01T15:58:11.580Z,99597.56
2022-10-01T16:00:47.770Z,99588.63
2022-10-01T16:03:24.216Z,99601.19
2022-10-01T16:05:56.407Z,99606.19
2022-10-01T16:08:32.891Z,99600.53
2022-10-01T16:11:15.898Z,99610.19
2022-10-01T16:13:50.691Z,99616.69
2022-10-01T16:16:26.994Z,99609.59
2022-10-01T16:18:58.059Z,99610.47
2022-10-01T16:21:25.719Z,99606.94
2022-10-01T16:23:55.084Z,99602.53
2022-10-01T16:26:27.783Z,99596.94
2022-10-01T16:28:55.979Z,99597.13
2022-10-01T16:31:23.971Z,99586.53
2022-10-01T16:33:50.943Z,99592.41
2022-10-01T16:36:20.634Z,99590.97
2022-10-01T16:38:48.341Z,99584.91
2022-10-01T16:41:22.442Z,99581.78
2022-10-01T16:43:51.133Z,99585.59
2022-10-01T16:46:18.145Z,99574.13
2022-10-01T16:48:51.462Z,99589.53
2022-10-01T16:51:19.399Z,99578.94
2022-10-01T16:53:47.128Z,99572.06
2022-10-01T16:56:14.326Z,99572.31
2022-10-01T16:58:43.410Z,99567.53
2022-10-01T17:01:13.919Z,99561.56
2022-10-01T17:03:41.104Z,99572.38
2022-10-01T17:06:07.912Z,99577.16
2022-10-01T17:08:34.771Z,99582.16
2022-10-01T17:11:02.774Z,99585.88
2022-10-01T17:13:32.852Z,99568.44
2022-10-01T17:16:00.933Z,99564.91
2022-10-01T17:18:28.110Z,99561.38
2022-10-01T17:20:56.153Z,99567.63
2022-10-01T17:23:23.615Z,99561.16
2022-10-01T17:25:50.768Z,99567.00
2022-10-01T17:28:20.302Z,99565.53
2022-10-01T17:30:49.330Z,99560.75
2022-10-01T17:33:20.959Z,99557.41
2022-10-01T17:35:54.688Z,99546.19
2022-10-01T17:38:22.764Z,99559.91
2022-10-01T17:40:55.491Z,99548.06
2022-10-01T17:43:23.490Z,99543.47
2022-10-01T17:45:56.707Z,99532.91
2022-10-01T17:48:24.201Z,99515.81
2022-10-01T17:51:05.898Z,99516.28
2022-10-01T17:53:39.737Z,99503.34
2022-10-01T17:56:12.906Z,99500.84
2022-10-01T17:58:44.796Z,99490.47
2022-10-01T18:01:15.118Z,99473.41
2022-10-01T18:03:42.249Z,99460.50
2022-10-01T18:06:13.558Z,99462.16
2022-10-01T18:08:54.570Z,99468.81
2022-10-01T18:11:23.047Z,99485.16
2022-10-01T18:13:51.109Z,99478.22
2022-10-01T18:16:19.496Z,99480.88
2022-10-01T18:21:33.853Z,99469.41
2022-10-01T18:24:04.521Z,99474.88
2022-10-01T18:26:33.027Z,99464.47
2022-10-01T18:29:01.290Z,99463.25
2022-10-01T18:31:40.730Z,99458.72
2022-10-01T18:34:18.485Z,99454.78
2022-10-01T18:37:08.295Z,99451.41
2022-10-01T18:39:44.687Z,99433.19
2022-10-01T18:42:43.165Z,99434.63
2022-10-01T18:45:21.075Z,99427.88
2022-10-01T18:48:13.507Z,99425.72
2022-10-01T18:50:52.128Z,99421.22
2022-10-01T18:54:06.396Z,99428.69
2022-10-01T18:56:36.138Z,99413.13
2022-10-01T18:59:21.662Z,99421.19
2022-10-01T19:02:00.370Z,99422.31
2022-10-01T19:05:05.393Z,99416.19
2022-10-01T19:07:43.529Z,99398.78
2022-10-01T19:10:23.139Z,99407.72
2022-10-01T19:12:58.922Z,99394.41
2022-10-01T19:15:34.453Z,99395.84
2022-10-01T19:18:22.716Z,99394.56
2022-10-01T19:21:16.789Z,99385.63
2022-10-01T19:24:19.253Z,99375.03
2022-10-01T19:27:25.019Z,99367.78
2022-10-01T19:30:11.047Z,99368.81
2022-10-01T19:32:55.447Z,99359.78
2022-10-01T19:35:27.773Z,99365.50
2022-10-01T19:38:04.191Z,99356.34
2022-10-01T19:40:31.060Z,99362.53
2022-10-01T19:43:16.512Z,99353.75
2022-10-01T19:46:00.904Z,99339.09
2022-10-01T19:48:47.908Z,99329.59
2022-10-01T19:51:20.497Z,99321.47
2022-10-01T19:53:56.437Z,99310.66
2022-10-01T19:56:28.388Z,99297.88
2022-10-01T19:58:57.424Z,99293.19
2022-10-01T20:01:34.623Z,99276.38
2022-10-01T20:04:05.383Z,99288.28
2022-10-01T20:06:42.664Z,99276.56
2022-10-01T20:09:25.826Z,99284.28
2022-10-01T20:11:57.433Z,99291.13
2022-10-01T20:14:51.839Z,99276.41
2022-10-01T20:17:50.588Z,99282.88
2022-10-01T20:20:23.808Z,99280.44
2022-10-01T20:22:53.402Z,99273.41
2022-10-01T20:26:08.030Z,99275.84
2022-10-01T20:29:16.574Z,99272.03
2022-10-01T20:32:09.358Z,99277.22
2022-10-01T20:34:57.228Z,99270.09
2022-10-01T20:37:36.475Z,99263.94
2022-10-01T20:40:28.282Z,99259.81
2022-10-01T20:43:06.026Z,99258.66
2022-10-01T20:45:35.563Z,99259.94
2022-10-01T20:48:25.430Z,99254.25
2022-10-01T20:50:58.590Z,99254.31
2022-10-01T20:53:46.713Z,99266.44
2022-10-01T20:56:21.188Z,99261.38
2022-10-01T20:59:00.624Z,99244.78
2022-10-01T21:01:31.044Z,99244.31
2022-10-01T21:04:21.005Z,99233.75
2022-10-01T21:06:50.686Z,99231.19
2022-10-01T21:09:27.970Z,99231.41
2022-10-01T21:12:04.041Z,99234.44
2022-10-01T21:14:53.719Z,99234.66
2022-10-01T21:17:33.088Z,99227.25
2022-10-01T21:20:15.668Z,99221.88
2022-10-01T21:22:57.623Z,99221.97
2022-10-01T21:25:30.213Z,99218.72
2022-10-01T21:28:09.620Z,99205.16
2022-10-01T21:31:16.435Z,99193.34
2022-10-01T21:33:56.213Z,99192.84
2022-10-01T21:36:26.017Z,99198.97
2022-10-01T21:38:58.927Z,99194.31
2022-10-01T21:41:53.946Z,99192.00
2022-10-01T21:44:48.727Z,99188.88
2022-10-01T21:48:01.064Z,99175.47
2022-10-01T21:50:44.542Z,99179.34
2022-10-01T21:53:28.859Z,99176.88
2022-10-01T21:56:22.359Z,99169.44
2022-10-01T21:59:16.967Z,99159.13
2022-10-01T22:02:01.812Z,99154.31
2022-10-01T22:04:48.482Z,99129.22
2022-10-01T22:07:17.985Z,99115.41
2022-10-01T22:09:50.219Z,99100.19
2022-10-01T22:12:17.229Z,99094.78
2022-10-01T22:14:45.152Z,99081.31
2022-10-01T22:17:16.846Z,99072.91
2022-10-01T22:19:49.311Z,99067.59
2022-10-01T22:22:38.812Z,99054.50
2022-10-01T22:25:07.902Z,99053.72
2022-10-01T22:28:07.375Z,99061.28
2022-10-01T22:30:37.312Z,99065.28
2022-10-01T22:33:22.370Z,99079.34
2022-10-01T22:36:25.108Z,99082.06
2022-10-01T22:38:55.841Z,99098.06
2022-10-01T22:41:34.177Z,99104.06
2022-10-01T22:44:27.141Z,99107.59
2022-10-01T22:47:31.527Z,99105.19
2022-10-01T22:50:26.350Z,99093.34
2022-10-01T22:52:58.134Z,99092.63
2022-10-01T22:55:52.705Z,99079.78
2022-10-01T22:58:46.831Z,99080.25
2022-10-01T23:01:25.571Z,99069.88
2022-10-01T23:03:55.512Z,99048.53
2022-10-01T23:06:45.031Z,99037.69
2022-10-01T23:09:20.617Z,99025.63
2022-10-01T23:12:15.703Z,99036.53
2022-10-01T23:14:55.712Z,99037.03
2022-10-01T23:17:33.568Z,99036.50
2022-10-01T23:20:28.186Z,99027.22
2022-10-01T23:23:20.731Z,99039.78
2022-10-01T23:26:06.219Z,99047.13
2022-10-01T23:28:54.252Z,99041.91
2022-10-01T23:31:26.817Z,99045.81
2022-10-01T23:33:58.793Z,99059.16
2022-10-01T23:36:28.302Z,99065.38
2022-10-01T23:39:16.140Z,99061.91
2022-10-01T23:42:00.255Z,99067.47
2022-10-01T23:44:42.997Z,99074.31
2022-10-01T23:47:16.524Z,99076.53
2022-10-01T23:49:55.873Z,99079.94
2022-10-01T23:52:39.055Z,99106.03
2022-10-01T23:55:56.117Z,99115.78
2022-10-01T23:58:25.097Z,99135.75
